LIBN/LCC METAR and TAF weather

Enter ICAO airport designator
Station Type Date Time Source
LIBN METAR 2021/10/22 17:55 UTC NOAA

LIBN 221755Z 14006KT 9999 FEW010 18/17 Q1019 RMK SCT SCT200 VIS MIN 9999 WIND THR14 15006KT WIND THR32 15005KT BLU


Station Type Date Time Source
LIBN Decoded METAR 2021/10/22 17:55 UTC NOAA

Lecce, Italy (LIBN) 40-14N 018-09E 61M
Oct 22, 2021 - 01:55 PM EDT / 2021.10.22 1755 UTC
Wind: from the SE (140 degrees) at 7 MPH (6 KT):0
Visibility: greater than 7 mile(s):0
Sky conditions: mostly clear
Temperature: 64 F (18 C)
Dew Point: 62 F (17 C)
Relative Humidity: 93%
Pressure (altimeter): 30.09 in. Hg (1019 hPa)
ob: LIBN 221755Z 14006KT 9999 FEW010 18/17 Q1019 RMK SCT SCT200 VIS MIN 9999 WIND THR14 15006KT WIND THR32 15005KT BLU
cycle: 18

Station Type Date Time Source
LIBN TAF 2021/06/28 12:51 UTC NOAA

TAF TAF LIBN 281100Z 2812/2824 VRB03KT CAVOK

Example: see airport list